createdAt,value
2023-01-08T00:01:28.745Z,0.70
2023-01-08T00:03:59.626Z,0.60
2023-01-08T00:06:31.558Z,0.80
2023-01-08T00:09:02.435Z,0.93
2023-01-08T00:11:35.845Z,0.80
2023-01-08T00:14:06.616Z,0.73
2023-01-08T00:16:40.822Z,0.80
2023-01-08T00:19:14.463Z,1.00
2023-01-08T00:21:44.886Z,0.70
2023-01-08T00:24:17.349Z,0.88
2023-01-08T00:26:50.453Z,0.90
2023-01-08T00:29:24.387Z,0.90
2023-01-08T00:31:55.175Z,1.30
2023-01-08T00:34:25.716Z,0.85
2023-01-08T00:36:56.269Z,1.15
2023-01-08T00:39:26.999Z,1.38
2023-01-08T00:42:00.279Z,1.48
2023-01-08T00:44:30.828Z,1.45
2023-01-08T00:47:01.400Z,1.33
2023-01-08T00:49:31.948Z,1.27
2023-01-08T00:52:02.565Z,1.50
2023-01-08T00:54:33.525Z,2.10
2023-01-08T00:57:14.647Z,1.60
2023-01-08T00:59:45.343Z,1.40
2023-01-08T01:02:19.408Z,1.50
2023-01-08T01:04:49.992Z,1.40
2023-01-08T01:07:20.829Z,1.00
2023-01-08T01:09:51.354Z,1.48
2023-01-08T01:12:24.393Z,1.42
2023-01-08T01:14:54.912Z,1.40
2023-01-08T01:17:25.407Z,1.40
2023-01-08T01:19:56.032Z,1.48
2023-01-08T01:22:26.583Z,1.30
2023-01-08T01:24:57.137Z,0.90
2023-01-08T01:27:30.626Z,0.80
2023-01-08T01:30:01.183Z,1.00
2023-01-08T01:32:32.106Z,1.15
2023-01-08T01:35:02.574Z,1.00
2023-01-08T01:37:33.108Z,1.48
2023-01-08T01:40:03.638Z,1.10
2023-01-08T01:42:45.441Z,1.25
2023-01-08T01:45:22.563Z,1.00
2023-01-08T01:47:58.798Z,0.80
2023-01-08T01:50:33.500Z,0.90
2023-01-08T01:53:09.994Z,1.08
2023-01-08T01:55:43.577Z,1.08
2023-01-08T01:58:19.135Z,0.90
2023-01-08T02:00:50.028Z,0.98
2023-01-08T02:03:25.343Z,0.47
2023-01-08T02:06:02.910Z,1.08
2023-01-08T02:08:45.115Z,1.58
2023-01-08T02:11:19.705Z,0.85
2023-01-08T02:13:58.120Z,0.63
2023-01-08T02:16:35.943Z,0.77
2023-01-08T02:19:16.991Z,0.68
2023-01-08T02:22:02.851Z,1.02
2023-01-08T02:24:54.586Z,1.70
2023-01-08T02:27:32.565Z,1.45
2023-01-08T02:30:04.328Z,1.20
2023-01-08T02:32:39.613Z,1.05
2023-01-08T02:35:11.868Z,0.80
2023-01-08T02:37:43.552Z,0.82
2023-01-08T02:40:21.601Z,0.90
2023-01-08T02:43:01.344Z,0.60
2023-01-08T02:45:41.950Z,0.70
2023-01-08T02:48:15.484Z,1.05
2023-01-08T02:50:57.918Z,0.80
2023-01-08T02:53:37.298Z,1.13
2023-01-08T02:56:12.292Z,1.13
2023-01-08T02:58:48.179Z,1.23
2023-01-08T03:01:20.986Z,1.00
2023-01-08T03:03:55.751Z,1.08
2023-01-08T03:06:26.959Z,1.13
2023-01-08T03:08:58.078Z,0.98
2023-01-08T03:11:35.755Z,0.80
2023-01-08T03:14:15.134Z,1.00
2023-01-08T03:16:50.943Z,0.93
2023-01-08T03:19:26.099Z,0.90
2023-01-08T03:21:56.873Z,0.80
2023-01-08T03:24:31.233Z,1.00
2023-01-08T03:27:04.335Z,0.88
2023-01-08T03:29:40.819Z,0.73
2023-01-08T03:32:15.562Z,0.80
2023-01-08T03:34:48.841Z,0.70
2023-01-08T03:37:35.121Z,0.90
2023-01-08T03:40:11.077Z,0.75
2023-01-08T03:42:42.525Z,0.85
2023-01-08T03:45:15.970Z,0.70
2023-01-08T03:47:48.632Z,0.70
2023-01-08T03:50:24.150Z,0.65
2023-01-08T03:52:55.202Z,0.50
2023-01-08T03:55:25.824Z,0.60
2023-01-08T03:57:56.575Z,0.88
2023-01-08T04:00:30.110Z,0.57
2023-01-08T04:03:13.407Z,0.82
2023-01-08T04:05:48.015Z,0.80
2023-01-08T04:08:19.823Z,0.57
2023-01-08T04:10:50.965Z,0.73
2023-01-08T04:13:28.876Z,0.70
2023-01-08T04:16:02.022Z,0.85
2023-01-08T04:18:38.870Z,0.50
2023-01-08T04:21:09.584Z,1.00
2023-01-08T04:23:40.141Z,0.50
2023-01-08T04:26:12.318Z,0.77
2023-01-08T04:28:45.196Z,0.60
2023-01-08T04:31:18.363Z,0.75
2023-01-08T04:33:49.221Z,0.70
2023-01-08T04:36:19.843Z,0.80
2023-01-08T04:38:50.720Z,0.73
2023-01-08T04:41:24.313Z,0.93
2023-01-08T04:43:55.589Z,0.73
2023-01-08T04:46:29.563Z,0.77
2023-01-08T04:49:00.529Z,0.43
2023-01-08T04:51:31.222Z,0.60
2023-01-08T04:54:02.189Z,0.50
2023-01-08T04:56:32.824Z,0.52
2023-01-08T04:59:03.385Z,0.70
2023-01-08T05:01:36.541Z,0.60
2023-01-08T05:04:08.274Z,0.55
2023-01-08T05:06:38.939Z,0.70
2023-01-08T05:09:09.635Z,0.60
2023-01-08T05:11:43.352Z,0.70
2023-01-08T05:14:14.008Z,1.00
2023-01-08T05:16:49.350Z,0.68
2023-01-08T05:19:23.045Z,0.68
2023-01-08T05:21:53.470Z,0.38
2023-01-08T05:24:24.603Z,0.60
2023-01-08T05:26:55.201Z,0.50
2023-01-08T05:29:25.825Z,0.85
2023-01-08T05:31:58.839Z,1.25
2023-01-08T05:34:29.797Z,0.70
2023-01-08T05:37:00.294Z,0.75
2023-01-08T05:39:30.888Z,0.80
2023-01-08T05:42:01.383Z,0.82
2023-01-08T05:44:32.189Z,0.80
2023-01-08T05:47:05.388Z,0.65
2023-01-08T05:49:35.988Z,0.80
2023-01-08T05:52:07.184Z,0.77
2023-01-08T05:54:37.818Z,0.70
2023-01-08T05:57:08.339Z,0.60
2023-01-08T05:59:39.032Z,1.00
2023-01-08T06:02:14.632Z,0.80
2023-01-08T06:04:45.270Z,1.20
2023-01-08T06:07:15.871Z,0.80
2023-01-08T06:09:46.387Z,0.82
2023-01-08T06:12:19.377Z,0.80
2023-01-08T06:14:49.847Z,1.70
2023-01-08T06:17:25.078Z,1.33
2023-01-08T06:19:55.538Z,1.00
2023-01-08T06:22:26.188Z,1.23
2023-01-08T06:24:56.870Z,1.23
2023-01-08T06:27:27.547Z,1.48
2023-01-08T06:29:58.394Z,0.85
2023-01-08T06:32:34.735Z,1.10
2023-01-08T06:35:05.675Z,1.17
2023-01-08T06:37:36.163Z,1.00
2023-01-08T06:40:07.428Z,0.90
2023-01-08T06:42:38.627Z,0.70
2023-01-08T06:45:13.780Z,0.90
2023-01-08T06:47:47.001Z,0.85
2023-01-08T06:50:17.794Z,0.70
2023-01-08T06:52:56.079Z,0.90
2023-01-08T06:55:27.606Z,0.88
2023-01-08T06:57:59.456Z,0.70
2023-01-08T07:00:30.341Z,0.68
2023-01-08T07:03:04.078Z,1.08
2023-01-08T07:05:34.972Z,1.00
2023-01-08T07:08:05.568Z,0.70
2023-01-08T07:10:37.567Z,0.82
2023-01-08T07:13:09.198Z,1.00
2023-01-08T07:15:40.018Z,1.10
2023-01-08T07:18:14.954Z,1.00
2023-01-08T07:20:49.163Z,0.90
2023-01-08T07:23:20.121Z,0.77
2023-01-08T07:25:51.283Z,1.02
2023-01-08T07:28:21.770Z,0.88
2023-01-08T07:30:52.493Z,1.20
2023-01-08T07:33:25.680Z,1.10
2023-01-08T07:35:56.724Z,1.10
2023-01-08T07:38:30.786Z,0.88
2023-01-08T07:41:01.399Z,0.77
2023-01-08T07:43:33.041Z,0.80
2023-01-08T07:46:09.172Z,0.80
2023-01-08T07:48:42.846Z,0.70
2023-01-08T07:51:13.902Z,0.60
2023-01-08T07:53:44.551Z,0.88
2023-01-08T07:56:15.169Z,0.90
2023-01-08T07:58:45.976Z,1.02
2023-01-08T08:01:18.350Z,0.90
2023-01-08T08:03:51.910Z,0.90
2023-01-08T08:06:22.587Z,0.80
2023-01-08T08:08:53.325Z,0.77
2023-01-08T08:11:23.949Z,0.70
2023-01-08T08:13:56.642Z,0.60
2023-01-08T08:16:27.402Z,0.75
2023-01-08T08:19:08.125Z,1.00
2023-01-08T08:21:38.619Z,1.45
2023-01-08T08:24:10.165Z,1.05
2023-01-08T08:26:40.735Z,0.70
2023-01-08T08:29:11.365Z,0.80
2023-01-08T08:31:42.838Z,1.08
2023-01-08T08:34:16.125Z,1.10
2023-01-08T08:36:46.751Z,0.90
2023-01-08T08:39:17.677Z,0.90
2023-01-08T08:41:48.165Z,1.00
2023-01-08T08:44:18.591Z,1.00
2023-01-08T08:46:49.278Z,0.77
2023-01-08T08:49:22.520Z,0.88
2023-01-08T08:51:53.577Z,1.02
2023-01-08T08:54:27.364Z,1.10
2023-01-08T08:56:58.740Z,0.70
2023-01-08T08:59:29.842Z,0.68
2023-01-08T09:02:00.692Z,0.60
2023-01-08T09:04:36.075Z,0.80
2023-01-08T09:07:06.899Z,0.75
2023-01-08T09:09:37.460Z,0.93
2023-01-08T09:12:08.890Z,0.88
2023-01-08T09:14:39.385Z,1.02
2023-01-08T09:17:10.050Z,1.38
2023-01-08T09:19:43.120Z,0.90
2023-01-08T09:22:13.658Z,1.02
2023-01-08T09:24:44.227Z,0.60
2023-01-08T09:27:14.804Z,0.88
2023-01-08T09:29:45.462Z,0.70
2023-01-08T09:32:16.395Z,0.70
2023-01-08T09:34:49.955Z,0.70
2023-01-08T09:37:20.350Z,0.70
2023-01-08T09:39:57.654Z,0.40
2023-01-08T09:42:33.801Z,0.50
2023-01-08T09:45:05.949Z,0.77
2023-01-08T09:47:41.233Z,0.50
2023-01-08T09:50:17.244Z,0.80
2023-01-08T09:52:47.728Z,0.52
2023-01-08T09:55:19.455Z,0.60
2023-01-08T09:57:51.747Z,0.68
2023-01-08T10:00:28.245Z,0.55
2023-01-08T10:03:00.225Z,0.40
2023-01-08T10:05:33.766Z,0.40
2023-01-08T10:08:05.402Z,0.30
2023-01-08T10:10:36.698Z,0.50
2023-01-08T10:13:07.747Z,0.50
2023-01-08T10:15:38.444Z,0.30
2023-01-08T10:18:14.723Z,0.30
2023-01-08T10:20:48.174Z,0.40
2023-01-08T10:23:21.262Z,0.43
2023-01-08T10:25:55.006Z,0.40
2023-01-08T10:28:27.568Z,0.40
2023-01-08T10:31:06.636Z,0.30
2023-01-08T10:33:43.806Z,0.40
2023-01-08T10:36:20.192Z,0.30
2023-01-08T10:38:55.231Z,0.70
2023-01-08T10:41:26.379Z,0.80
2023-01-08T10:44:04.036Z,0.28
2023-01-08T10:46:38.727Z,0.30
2023-01-08T10:49:11.011Z,0.40
2023-01-08T10:51:52.476Z,0.40
2023-01-08T10:54:39.344Z,0.40
2023-01-08T10:57:23.759Z,0.35
2023-01-08T10:59:54.714Z,0.20
2023-01-08T11:02:38.385Z,0.40
2023-01-08T11:05:11.777Z,0.38
2023-01-08T11:07:48.164Z,0.35
2023-01-08T11:10:26.917Z,0.30
2023-01-08T11:12:59.724Z,0.40
2023-01-08T11:15:36.033Z,0.20
2023-01-08T11:18:08.952Z,0.30
2023-01-08T11:20:42.293Z,0.47
2023-01-08T11:23:21.993Z,0.40
2023-01-08T11:25:58.754Z,0.30
2023-01-08T11:28:41.392Z,0.20
2023-01-08T11:31:17.989Z,0.30
2023-01-08T11:33:56.991Z,0.40
2023-01-08T11:36:33.123Z,0.28
2023-01-08T11:39:06.336Z,0.22
2023-01-08T11:41:54.240Z,0.65
2023-01-08T11:44:39.158Z,0.40
2023-01-08T11:47:21.942Z,0.32
2023-01-08T11:50:12.472Z,0.40
2023-01-08T11:53:02.679Z,0.20
2023-01-08T11:55:48.921Z,0.20
2023-01-08T11:58:31.248Z,0.20
2023-01-08T12:01:20.430Z,0.35
2023-01-08T12:03:57.811Z,0.22
2023-01-08T12:06:40.941Z,0.50
2023-01-08T12:09:20.394Z,0.50
2023-01-08T12:12:00.513Z,0.50
2023-01-08T12:14:50.596Z,0.52
2023-01-08T12:17:59.897Z,0.65
2023-01-08T12:20:39.577Z,0.43
2023-01-08T12:23:24.568Z,0.30
2023-01-08T12:26:10.126Z,0.30
2023-01-08T12:29:08.936Z,0.30
2023-01-08T12:32:07.406Z,0.20
2023-01-08T12:34:46.473Z,0.17
2023-01-08T12:37:22.638Z,0.45
2023-01-08T12:40:02.300Z,0.30
2023-01-08T12:42:35.246Z,0.50
2023-01-08T12:45:16.851Z,0.20
2023-01-08T12:47:51.713Z,0.30
2023-01-08T12:50:40.356Z,0.65
2023-01-08T12:53:21.812Z,0.32
2023-01-08T12:56:02.534Z,0.30
2023-01-08T12:58:42.015Z,0.40
2023-01-08T13:01:27.090Z,0.40
2023-01-08T13:03:58.490Z,0.63
2023-01-08T13:06:29.896Z,0.43
2023-01-08T13:09:02.394Z,0.35
2023-01-08T13:11:35.347Z,0.30
2023-01-08T13:14:12.469Z,0.43
2023-01-08T13:16:49.370Z,0.68
2023-01-08T13:19:28.824Z,0.30
2023-01-08T13:22:02.254Z,0.50
2023-01-08T13:24:35.607Z,0.52
2023-01-08T13:27:31.164Z,0.35
2023-01-08T13:30:02.238Z,0.25
2023-01-08T13:32:47.908Z,0.40
2023-01-08T13:35:25.528Z,0.13
2023-01-08T13:38:15.388Z,0.20
2023-01-08T13:41:08.563Z,0.20
2023-01-08T13:43:42.292Z,0.20
2023-01-08T13:46:20.096Z,0.20
2023-01-08T13:49:02.585Z,0.22
2023-01-08T13:51:35.996Z,0.52
2023-01-08T13:54:22.140Z,0.23
2023-01-08T13:56:57.619Z,0.50
2023-01-08T13:59:39.804Z,0.60
2023-01-08T14:02:34.884Z,0.22
2023-01-08T14:05:22.361Z,0.43
2023-01-08T14:07:53.036Z,0.77
2023-01-08T14:10:24.522Z,0.30
2023-01-08T14:12:55.353Z,0.32
2023-01-08T14:15:28.655Z,0.40
2023-01-08T14:18:03.184Z,0.20
2023-01-08T14:20:39.755Z,0.35
2023-01-08T14:23:16.009Z,0.35
2023-01-08T14:25:50.556Z,0.30
2023-01-08T14:28:24.274Z,0.30
2023-01-08T14:30:56.661Z,0.13
2023-01-08T14:33:34.789Z,0.30
2023-01-08T14:36:11.267Z,0.20
2023-01-08T14:38:42.412Z,0.20
2023-01-08T14:41:15.738Z,0.20
2023-01-08T14:43:49.916Z,0.20
2023-01-08T14:46:24.750Z,0.20
2023-01-08T14:48:57.200Z,0.10
2023-01-08T14:51:32.330Z,0.30
2023-01-08T14:54:06.409Z,0.30
2023-01-08T14:56:38.759Z,0.30
2023-01-08T14:59:13.009Z,0.20
2023-01-08T15:01:46.749Z,0.25
2023-01-08T15:04:20.474Z,0.28
2023-01-08T15:06:55.640Z,0.47
2023-01-08T15:09:33.500Z,0.40
2023-01-08T15:12:07.314Z,0.20
2023-01-08T15:14:38.090Z,0.20
2023-01-08T15:17:14.172Z,0.30
2023-01-08T15:19:50.231Z,0.15
2023-01-08T15:22:26.254Z,0.30
2023-01-08T15:25:01.051Z,0.50
2023-01-08T15:27:47.141Z,0.25
2023-01-08T15:30:29.155Z,0.32
2023-01-08T15:33:09.978Z,0.32
2023-01-08T15:35:40.585Z,0.47
2023-01-08T15:38:13.692Z,0.50
2023-01-08T15:40:44.854Z,0.40
2023-01-08T15:43:14.318Z,0.40
2023-01-08T15:45:47.117Z,0.60
2023-01-08T15:48:38.890Z,0.50
2023-01-08T15:51:27.897Z,0.40
2023-01-08T15:54:39.090Z,0.50
2023-01-08T15:57:35.399Z,0.70
2023-01-08T16:00:45.183Z,0.63
2023-01-08T16:03:17.797Z,0.70
2023-01-08T16:05:48.372Z,0.52
2023-01-08T16:08:18.933Z,0.70
2023-01-08T16:10:54.590Z,0.60
2023-01-08T16:13:25.099Z,0.80
2023-01-08T16:15:55.980Z,0.40
2023-01-08T16:18:26.715Z,0.63
2023-01-08T16:21:02.779Z,1.13
2023-01-08T16:23:33.232Z,0.43
2023-01-08T16:26:08.279Z,0.60
2023-01-08T16:28:38.858Z,0.63
2023-01-08T16:31:09.627Z,0.50
2023-01-08T16:33:40.692Z,0.68
2023-01-08T16:36:12.847Z,0.40
2023-01-08T16:38:43.434Z,0.75
2023-01-08T16:41:16.821Z,0.50
2023-01-08T16:43:48.063Z,0.30
2023-01-08T16:46:19.854Z,0.57
2023-01-08T16:48:51.407Z,0.50
2023-01-08T16:51:22.330Z,0.70
2023-01-08T16:53:53.119Z,0.70
2023-01-08T16:56:26.288Z,0.90
2023-01-08T16:58:56.780Z,0.70
2023-01-08T17:01:28.042Z,0.75
2023-01-08T17:04:00.418Z,0.70
2023-01-08T17:06:31.778Z,0.63
2023-01-08T17:09:02.754Z,0.60
2023-01-08T17:11:35.688Z,0.70
2023-01-08T17:14:07.025Z,0.63
2023-01-08T17:16:38.091Z,0.50
2023-01-08T17:19:08.657Z,0.80
2023-01-08T17:21:39.191Z,0.50
2023-01-08T17:24:10.805Z,0.50
2023-01-08T17:26:43.939Z,0.35
2023-01-08T17:29:14.464Z,0.40
2023-01-08T17:31:45.025Z,0.35
2023-01-08T17:34:16.490Z,0.60
2023-01-08T17:36:46.897Z,0.38
2023-01-08T17:39:17.990Z,0.40
2023-01-08T17:42:03.480Z,0.73
2023-01-08T17:44:34.123Z,0.45
2023-01-08T17:47:04.661Z,0.32
2023-01-08T17:49:35.216Z,0.32
2023-01-08T17:52:05.797Z,0.30
2023-01-08T17:54:36.245Z,0.50
2023-01-08T17:57:09.450Z,0.45
2023-01-08T17:59:40.195Z,0.50
2023-01-08T18:02:15.711Z,0.43
2023-01-08T18:04:48.426Z,0.38
2023-01-08T18:07:23.475Z,0.55
2023-01-08T18:09:56.977Z,0.40
2023-01-08T18:12:30.110Z,0.40
2023-01-08T18:15:01.027Z,0.40
2023-01-08T18:17:32.787Z,0.50
2023-01-08T18:20:03.289Z,0.32
2023-01-08T18:22:33.735Z,0.40
2023-01-08T18:25:04.213Z,0.40
2023-01-08T18:27:37.547Z,0.50
2023-01-08T18:30:09.831Z,0.50
2023-01-08T18:32:40.260Z,0.38
2023-01-08T18:35:12.915Z,0.88
2023-01-08T18:37:43.436Z,0.60
2023-01-08T18:40:15.162Z,0.50
2023-01-08T18:42:50.223Z,1.17
2023-01-08T18:45:20.951Z,0.77
2023-01-08T18:47:55.317Z,0.63
2023-01-08T18:50:28.329Z,0.50
2023-01-08T18:52:59.309Z,0.50
2023-01-08T18:55:29.804Z,0.70
2023-01-08T18:58:04.641Z,0.80
2023-01-08T19:00:37.401Z,0.60
2023-01-08T19:03:09.525Z,0.43
2023-01-08T19:05:43.159Z,0.47
2023-01-08T19:08:14.047Z,0.70
2023-01-08T19:10:44.580Z,0.50
2023-01-08T19:13:19.108Z,0.60
2023-01-08T19:15:50.176Z,0.50
2023-01-08T19:18:22.960Z,0.80
2023-01-08T19:20:53.419Z,0.40
2023-01-08T19:23:23.882Z,0.30
2023-01-08T19:25:54.445Z,0.47
2023-01-08T19:28:27.745Z,0.38
2023-01-08T19:30:58.481Z,0.70
2023-01-08T19:33:29.211Z,0.57
2023-01-08T19:36:05.732Z,0.50
2023-01-08T19:38:36.307Z,0.45
2023-01-08T19:41:27.701Z,0.60
2023-01-08T19:43:58.670Z,0.85
2023-01-08T19:46:36.673Z,0.70
2023-01-08T19:49:21.763Z,0.60
2023-01-08T19:51:52.755Z,0.68
2023-01-08T19:54:25.838Z,0.70
2023-01-08T19:56:56.841Z,0.57
2023-01-08T19:59:30.037Z,0.50
2023-01-08T20:02:00.511Z,0.63
2023-01-08T20:04:31.349Z,0.65
2023-01-08T20:07:01.738Z,0.73
2023-01-08T20:09:34.414Z,0.80
2023-01-08T20:12:05.233Z,0.70
2023-01-08T20:14:38.533Z,0.68
2023-01-08T20:17:09.042Z,0.63
2023-01-08T20:19:39.769Z,0.43
2023-01-08T20:22:10.314Z,0.60
2023-01-08T20:24:41.649Z,0.47
2023-01-08T20:27:12.248Z,0.60
2023-01-08T20:29:45.287Z,0.40
2023-01-08T20:32:15.791Z,0.50
2023-01-08T20:34:46.191Z,0.63
2023-01-08T20:37:17.108Z,0.57
2023-01-08T20:39:47.642Z,0.60
2023-01-08T20:42:32.956Z,0.55
2023-01-08T20:45:10.115Z,0.60
2023-01-08T20:47:40.553Z,0.73
2023-01-08T20:50:19.983Z,0.90
2023-01-08T20:53:00.318Z,0.43
2023-01-08T20:55:31.113Z,0.68
2023-01-08T20:58:02.077Z,0.60
2023-01-08T21:00:35.118Z,0.52
2023-01-08T21:03:06.006Z,0.30
2023-01-08T21:05:38.115Z,0.40
2023-01-08T21:08:10.148Z,0.50
2023-01-08T21:10:40.600Z,0.50
2023-01-08T21:13:14.316Z,0.40
2023-01-08T21:15:49.812Z,0.50
2023-01-08T21:18:23.249Z,0.50
2023-01-08T21:20:54.056Z,0.40
2023-01-08T21:23:24.435Z,0.73
2023-01-08T21:25:58.104Z,0.60
2023-01-08T21:28:29.219Z,0.50
2023-01-08T21:31:07.979Z,0.60
2023-01-08T21:33:38.860Z,0.60
2023-01-08T21:36:12.180Z,0.60
2023-01-08T21:38:43.265Z,0.90
2023-01-08T21:41:36.444Z,0.68
2023-01-08T21:44:26.030Z,1.50
2023-01-08T21:47:01.206Z,0.82
2023-01-08T21:49:31.963Z,0.50
2023-01-08T21:52:14.841Z,0.70
2023-01-08T21:54:45.529Z,1.13
2023-01-08T21:57:16.756Z,0.80
2023-01-08T21:59:48.563Z,0.50
2023-01-08T22:02:24.289Z,0.40
2023-01-08T22:04:58.436Z,0.60
2023-01-08T22:07:29.103Z,0.50
2023-01-08T22:10:00.663Z,0.50
2023-01-08T22:12:31.147Z,0.57
2023-01-08T22:15:01.746Z,0.50
2023-01-08T22:17:34.846Z,0.50
2023-01-08T22:20:08.125Z,0.40
2023-01-08T22:22:39.076Z,0.50
2023-01-08T22:25:11.131Z,0.47
2023-01-08T22:27:41.591Z,0.30
2023-01-08T22:30:13.829Z,0.30
2023-01-08T22:32:47.660Z,0.60
2023-01-08T22:37:48.654Z,0.60
2023-01-08T22:40:19.762Z,0.50
2023-01-08T22:42:50.148Z,0.38
2023-01-08T22:45:20.667Z,0.30
2023-01-08T22:47:53.657Z,0.50
2023-01-08T22:50:26.751Z,0.63
2023-01-08T22:52:57.171Z,0.50
2023-01-08T22:55:27.575Z,0.65
2023-01-08T22:57:58.029Z,0.40
2023-01-08T23:00:32.558Z,0.45
2023-01-08T23:03:09.065Z,0.40
2023-01-08T23:05:40.202Z,0.63
2023-01-08T23:08:11.185Z,0.50
2023-01-08T23:10:42.227Z,0.73
2023-01-08T23:13:12.643Z,0.70
2023-01-08T23:15:43.424Z,0.60
2023-01-08T23:18:16.610Z,0.50
2023-01-08T23:20:47.301Z,0.65
2023-01-08T23:23:18.058Z,0.47
2023-01-08T23:25:51.192Z,0.40
2023-01-08T23:28:21.746Z,0.50
2023-01-08T23:30:52.309Z,0.50
2023-01-08T23:33:25.435Z,0.40
2023-01-08T23:35:56.342Z,0.50
2023-01-08T23:38:26.872Z,0.43
2023-01-08T23:40:57.461Z,0.55
2023-01-08T23:43:28.252Z,0.60
2023-01-08T23:45:59.923Z,0.50
2023-01-08T23:48:33.568Z,0.40
2023-01-08T23:51:04.345Z,0.70
2023-01-08T23:53:34.932Z,0.63
2023-01-08T23:56:05.660Z,0.70
2023-01-08T23:58:36.165Z,0.40
